createdAt,value
2019-03-24T00:00:36.902Z,8.90
2019-03-24T00:03:05.217Z,8.80
2019-03-24T00:05:33.461Z,8.80
2019-03-24T00:08:01.693Z,8.70
2019-03-24T00:10:29.956Z,8.70
2019-03-24T00:12:58.317Z,8.70
2019-03-24T00:15:26.909Z,8.60
2019-03-24T00:17:55.297Z,8.50
2019-03-24T00:20:23.534Z,8.50
2019-03-24T00:22:51.783Z,8.50
2019-03-24T00:25:20.008Z,8.50
2019-03-24T00:27:48.272Z,8.40
2019-03-24T00:30:16.518Z,8.40
2019-03-24T00:32:44.876Z,8.40
2019-03-24T00:35:13.105Z,8.30
2019-03-24T00:37:41.321Z,8.40
2019-03-24T00:40:09.576Z,8.40
2019-03-24T00:42:37.830Z,8.30
2019-03-24T00:45:07.626Z,8.20
2019-03-24T00:47:35.858Z,8.20
2019-03-24T00:50:05.862Z,8.30
2019-03-24T00:52:34.107Z,8.20
2019-03-24T00:55:02.353Z,8.10
2019-03-24T00:57:30.592Z,8.10
2019-03-24T00:59:58.831Z,8.00
2019-03-24T01:02:27.061Z,8.00
2019-03-24T01:04:55.326Z,7.90
2019-03-24T01:07:23.562Z,8.00
2019-03-24T01:09:52.350Z,7.90
2019-03-24T01:12:20.639Z,7.90
2019-03-24T01:14:48.886Z,7.80
2019-03-24T01:17:17.129Z,7.80
2019-03-24T01:19:45.355Z,7.80
2019-03-24T01:22:13.613Z,7.70
2019-03-24T01:24:41.833Z,7.60
2019-03-24T01:27:10.085Z,7.60
2019-03-24T01:29:38.310Z,7.60
2019-03-24T01:32:06.551Z,7.60
2019-03-24T01:34:34.823Z,7.60
2019-03-24T01:37:03.043Z,7.50
2019-03-24T01:39:31.302Z,7.50
2019-03-24T01:41:59.553Z,7.60
2019-03-24T01:44:27.803Z,7.60
2019-03-24T01:46:56.090Z,7.50
2019-03-24T01:49:24.332Z,7.40
2019-03-24T01:52:11.991Z,7.40
2019-03-24T01:54:40.250Z,7.40
2019-03-24T01:57:08.489Z,7.30
2019-03-24T01:59:36.719Z,7.30
2019-03-24T02:02:04.979Z,7.30
2019-03-24T02:04:33.225Z,7.20
2019-03-24T02:07:01.442Z,7.20
2019-03-24T02:09:29.713Z,7.20
2019-03-24T02:11:57.952Z,7.10
2019-03-24T02:14:26.192Z,7.10
2019-03-24T02:16:54.432Z,7.20
2019-03-24T02:19:22.646Z,7.10
2019-03-24T02:21:50.901Z,7.00
2019-03-24T02:24:19.164Z,7.00
2019-03-24T02:26:47.417Z,6.90
2019-03-24T02:29:15.640Z,6.90
2019-03-24T02:31:43.880Z,6.90
2019-03-24T02:34:12.101Z,6.90
2019-03-24T02:36:40.362Z,6.90
2019-03-24T02:39:08.599Z,6.90
2019-03-24T02:41:36.837Z,6.90
2019-03-24T02:44:05.110Z,6.80
2019-03-24T02:46:33.376Z,6.70
2019-03-24T02:49:01.638Z,6.70
2019-03-24T02:51:29.873Z,6.70
2019-03-24T02:53:58.152Z,6.70
2019-03-24T02:56:26.386Z,6.70
2019-03-24T02:58:54.646Z,6.60
2019-03-24T03:01:22.915Z,6.60
2019-03-24T03:03:51.154Z,6.50
2019-03-24T03:06:19.416Z,6.50
2019-03-24T03:08:47.651Z,6.50
2019-03-24T03:11:15.906Z,6.50
2019-03-24T03:13:44.147Z,6.40
2019-03-24T03:16:12.406Z,6.40
2019-03-24T03:18:40.647Z,6.30
2019-03-24T03:21:08.898Z,6.30
2019-03-24T03:23:37.142Z,6.30
2019-03-24T03:26:05.411Z,6.20
2019-03-24T03:28:33.673Z,6.20
2019-03-24T03:31:01.924Z,6.20
2019-03-24T03:33:30.198Z,6.20
2019-03-24T03:35:58.533Z,6.10
2019-03-24T03:38:26.862Z,6.10
2019-03-24T03:40:55.162Z,6.10
2019-03-24T03:43:23.415Z,6.10
2019-03-24T03:45:51.686Z,6.00
2019-03-24T03:48:19.948Z,6.00
2019-03-24T03:50:48.191Z,5.90
2019-03-24T03:53:16.451Z,5.80
2019-03-24T03:55:44.709Z,5.80
2019-03-24T03:58:12.963Z,5.80
2019-03-24T04:00:41.199Z,5.80
2019-03-24T04:03:09.458Z,5.90
2019-03-24T04:05:37.701Z,5.90
2019-03-24T04:08:06.130Z,5.80
2019-03-24T04:10:34.373Z,5.80
2019-03-24T04:13:02.637Z,5.90
2019-03-24T04:15:30.911Z,5.80
2019-03-24T04:17:59.170Z,5.80
2019-03-24T04:20:27.419Z,5.70
2019-03-24T04:22:58.650Z,5.60
2019-03-24T04:25:26.914Z,5.60
2019-03-24T04:27:55.150Z,5.60
2019-03-24T04:30:23.410Z,5.50
2019-03-24T04:32:51.675Z,5.60
2019-03-24T04:35:20.049Z,5.60
2019-03-24T04:37:48.274Z,5.50
2019-03-24T04:40:16.518Z,5.40
2019-03-24T04:42:44.783Z,5.40
2019-03-24T04:45:13.041Z,5.30
2019-03-24T04:47:41.278Z,5.30
2019-03-24T04:50:09.539Z,5.30
2019-03-24T04:52:37.782Z,5.30
2019-03-24T04:55:08.779Z,5.30
2019-03-24T04:57:37.029Z,5.30
2019-03-24T05:00:07.298Z,5.30
2019-03-24T05:02:35.542Z,5.30
2019-03-24T05:05:05.454Z,5.30
2019-03-24T05:07:33.686Z,5.30
2019-03-24T05:10:01.994Z,5.20
2019-03-24T05:12:30.258Z,5.20
2019-03-24T05:14:58.519Z,5.20
2019-03-24T05:17:27.485Z,5.20
2019-03-24T05:19:55.886Z,5.10
2019-03-24T05:22:24.130Z,5.20
2019-03-24T05:24:52.361Z,5.20
2019-03-24T05:27:20.630Z,5.10
2019-03-24T05:29:48.870Z,5.10
2019-03-24T05:32:17.142Z,5.10
2019-03-24T05:34:45.374Z,5.10
2019-03-24T05:37:13.637Z,5.00
2019-03-24T05:39:41.894Z,5.00
2019-03-24T05:42:10.149Z,5.00
2019-03-24T05:44:38.389Z,5.00
2019-03-24T05:47:06.655Z,5.00
2019-03-24T05:49:34.894Z,5.10
2019-03-24T05:52:03.150Z,5.00
2019-03-24T05:54:31.409Z,5.10
2019-03-24T05:56:59.643Z,5.20
2019-03-24T05:59:27.913Z,5.20
2019-03-24T06:01:56.158Z,5.10
2019-03-24T06:04:24.393Z,5.20
2019-03-24T06:06:52.662Z,5.20
2019-03-24T06:09:20.929Z,5.20
2019-03-24T06:11:49.169Z,5.20
2019-03-24T06:14:17.430Z,5.20
2019-03-24T06:16:45.666Z,5.20
2019-03-24T06:19:13.945Z,5.30
2019-03-24T06:21:42.186Z,5.30
2019-03-24T06:24:10.447Z,5.30
2019-03-24T06:26:38.677Z,5.40
2019-03-24T06:29:06.921Z,5.50
2019-03-24T06:31:35.203Z,5.60
2019-03-24T06:34:03.442Z,5.60
2019-03-24T06:36:31.705Z,5.70
2019-03-24T06:38:59.943Z,5.80
2019-03-24T06:41:28.207Z,5.90
2019-03-24T06:43:56.445Z,6.00
2019-03-24T06:46:24.705Z,6.00
2019-03-24T06:48:52.949Z,5.90
2019-03-24T06:51:21.195Z,6.00
2019-03-24T06:53:49.457Z,6.00
2019-03-24T06:56:17.701Z,6.20
2019-03-24T06:58:45.965Z,6.30
2019-03-24T07:01:14.202Z,6.40
2019-03-24T07:03:42.469Z,6.50
2019-03-24T07:06:10.797Z,6.60
2019-03-24T07:08:39.036Z,6.60
2019-03-24T07:11:13.386Z,6.80
2019-03-24T07:13:37.281Z,6.90
2019-03-24T07:16:05.554Z,7.00
2019-03-24T07:18:33.806Z,7.10
2019-03-24T07:21:02.070Z,7.20
2019-03-24T07:23:30.306Z,7.20
2019-03-24T07:25:58.567Z,7.30
2019-03-24T07:28:26.813Z,7.40
2019-03-24T07:30:55.101Z,7.50
2019-03-24T07:33:23.393Z,7.60
2019-03-24T07:35:51.670Z,7.70
2019-03-24T07:38:19.899Z,7.90
2019-03-24T07:40:48.146Z,8.00
2019-03-24T07:43:16.425Z,8.10
2019-03-24T07:45:44.678Z,8.30
2019-03-24T07:48:19.103Z,8.40
2019-03-24T07:50:42.950Z,8.50
2019-03-24T07:53:11.265Z,8.60
2019-03-24T07:55:39.541Z,8.70
2019-03-24T07:58:07.794Z,8.80
2019-03-24T08:00:37.197Z,9.00
2019-03-24T08:03:05.434Z,9.10
2019-03-24T08:05:33.669Z,9.10
2019-03-24T08:08:01.927Z,9.20
2019-03-24T08:10:30.196Z,9.40
2019-03-24T08:12:58.501Z,9.50
2019-03-24T08:15:26.766Z,9.60
2019-03-24T08:17:55.001Z,9.80
2019-03-24T08:20:23.269Z,9.90
2019-03-24T08:22:51.544Z,10.00
2019-03-24T08:25:19.801Z,10.10
2019-03-24T08:27:48.050Z,10.20
2019-03-24T08:30:19.582Z,10.30
2019-03-24T08:32:47.838Z,10.50
2019-03-24T08:35:16.086Z,10.60
2019-03-24T08:37:44.353Z,10.80
2019-03-24T08:40:12.601Z,10.90
2019-03-24T08:42:40.898Z,11.00
2019-03-24T08:45:12.407Z,11.10
2019-03-24T08:47:40.679Z,11.30
2019-03-24T08:50:08.930Z,11.40
2019-03-24T08:52:37.197Z,11.50
2019-03-24T08:55:06.393Z,11.60
2019-03-24T08:57:34.658Z,11.70
2019-03-24T09:00:03.976Z,11.90
2019-03-24T09:02:32.501Z,12.00
2019-03-24T09:05:00.740Z,12.20
2019-03-24T09:07:28.991Z,12.30
2019-03-24T09:09:57.274Z,12.50
2019-03-24T09:12:25.518Z,12.50
2019-03-24T09:14:53.794Z,12.70
2019-03-24T09:17:22.039Z,12.90
2019-03-24T09:19:50.304Z,13.00
2019-03-24T09:22:18.577Z,13.10
2019-03-24T09:24:46.826Z,13.20
2019-03-24T09:27:15.076Z,13.30
2019-03-24T09:29:43.339Z,13.40
2019-03-24T09:32:11.581Z,13.50
2019-03-24T09:34:40.607Z,13.70
2019-03-24T09:37:08.978Z,13.80
2019-03-24T09:39:37.226Z,14.00
2019-03-24T09:42:05.490Z,14.10
2019-03-24T09:44:33.736Z,14.20
2019-03-24T09:47:02.001Z,14.20
2019-03-24T09:49:30.246Z,14.20
2019-03-24T09:51:58.524Z,14.50
2019-03-24T09:54:26.765Z,14.60
2019-03-24T09:56:55.014Z,14.90
2019-03-24T09:59:23.281Z,15.10
2019-03-24T10:01:51.546Z,15.40
2019-03-24T10:04:19.789Z,15.40
2019-03-24T10:06:48.127Z,15.50
2019-03-24T10:09:16.394Z,15.60
2019-03-24T10:11:44.650Z,15.80
2019-03-24T10:14:12.913Z,15.90
2019-03-24T10:16:41.176Z,16.00
2019-03-24T10:19:14.027Z,16.20
2019-03-24T10:21:39.449Z,16.10
2019-03-24T10:24:08.015Z,16.30
2019-03-24T10:26:36.433Z,16.60
2019-03-24T10:29:04.774Z,16.60
2019-03-24T10:31:33.037Z,16.80
2019-03-24T10:34:01.286Z,17.00
2019-03-24T10:36:29.545Z,17.20
2019-03-24T10:38:57.794Z,17.30
2019-03-24T10:41:26.040Z,17.60
2019-03-24T10:43:54.310Z,17.70
2019-03-24T10:46:22.547Z,17.90
2019-03-24T10:48:50.815Z,18.00
2019-03-24T10:51:19.089Z,18.10
2019-03-24T10:53:47.318Z,18.10
2019-03-24T10:56:15.589Z,18.20
2019-03-24T10:58:43.842Z,18.30
2019-03-24T11:01:12.085Z,18.50
2019-03-24T11:03:40.351Z,18.50
2019-03-24T11:06:08.592Z,18.80
2019-03-24T11:08:36.865Z,19.00
2019-03-24T11:11:05.114Z,19.30
2019-03-24T11:13:33.377Z,19.50
2019-03-24T11:16:01.620Z,19.70
2019-03-24T11:18:29.865Z,19.70
2019-03-24T11:20:58.130Z,19.70
2019-03-24T11:23:26.403Z,19.70
2019-03-24T11:25:54.642Z,20.10
2019-03-24T11:28:22.901Z,20.30
2019-03-24T11:30:51.126Z,20.70
2019-03-24T11:33:19.394Z,20.80
2019-03-24T11:35:47.643Z,20.90
2019-03-24T11:38:15.902Z,21.40
2019-03-24T11:40:44.136Z,21.40
2019-03-24T11:43:12.401Z,21.80
2019-03-24T11:45:40.642Z,22.40
2019-03-24T11:48:08.896Z,22.90
2019-03-24T11:50:37.118Z,22.80
2019-03-24T11:53:05.434Z,23.00
2019-03-24T11:55:33.690Z,23.30
2019-03-24T11:58:06.139Z,23.30
2019-03-24T12:00:33.549Z,23.30
2019-03-24T12:03:02.317Z,23.60
2019-03-24T12:05:30.573Z,23.50
2019-03-24T12:07:58.819Z,23.70
2019-03-24T12:10:27.073Z,23.90
2019-03-24T12:12:55.310Z,24.20
2019-03-24T12:15:23.558Z,24.40
2019-03-24T12:17:51.819Z,24.30
2019-03-24T12:20:20.063Z,24.70
2019-03-24T12:22:48.331Z,25.00
2019-03-24T12:25:16.569Z,25.20
2019-03-24T12:27:44.820Z,25.30
2019-03-24T12:30:13.070Z,25.50
2019-03-24T12:32:41.313Z,25.70
2019-03-24T12:35:09.541Z,25.70
2019-03-24T12:37:37.792Z,25.70
2019-03-24T12:40:07.075Z,25.90
2019-03-24T12:42:35.306Z,25.90
2019-03-24T12:45:05.275Z,25.70
2019-03-24T12:47:33.532Z,25.40
2019-03-24T12:50:08.990Z,25.80
2019-03-24T12:52:31.766Z,25.90
2019-03-24T12:55:00.010Z,26.30
2019-03-24T12:57:28.278Z,26.00
2019-03-24T12:59:56.518Z,25.70
2019-03-24T13:02:24.753Z,26.40
2019-03-24T13:04:53.013Z,26.50
2019-03-24T13:07:21.239Z,26.40
2019-03-24T13:09:49.501Z,26.10
2019-03-24T13:12:17.744Z,25.90
2019-03-24T13:14:46.006Z,25.90
2019-03-24T13:17:14.238Z,26.10
2019-03-24T13:19:42.500Z,25.90
2019-03-24T13:22:10.728Z,25.80
2019-03-24T13:24:38.995Z,25.90
2019-03-24T13:27:07.232Z,25.80
2019-03-24T13:29:35.486Z,25.50
2019-03-24T13:32:03.734Z,25.60
2019-03-24T13:34:31.980Z,25.30
2019-03-24T13:37:00.202Z,25.20
2019-03-24T13:39:28.450Z,25.20
2019-03-24T13:41:56.693Z,24.60
2019-03-24T13:44:24.963Z,25.00
2019-03-24T13:46:53.205Z,25.50
2019-03-24T13:49:21.458Z,25.30
2019-03-24T13:51:49.716Z,24.50
2019-03-24T13:54:17.957Z,24.60
2019-03-24T13:56:46.206Z,24.90
2019-03-24T13:59:14.466Z,24.50
2019-03-24T14:01:42.686Z,24.80
2019-03-24T14:04:10.942Z,24.90
2019-03-24T14:06:39.193Z,25.20
2019-03-24T14:09:09.227Z,24.80
2019-03-24T14:11:37.494Z,24.70
2019-03-24T14:14:05.739Z,24.60
2019-03-24T14:16:33.966Z,23.40
2019-03-24T14:19:02.237Z,22.80
2019-03-24T14:21:30.475Z,21.80
2019-03-24T14:23:58.730Z,21.20
2019-03-24T14:26:26.977Z,21.10
2019-03-24T14:28:55.232Z,20.80
2019-03-24T14:31:23.470Z,20.20
2019-03-24T14:33:51.698Z,20.20
2019-03-24T14:36:19.966Z,20.10
2019-03-24T14:38:48.205Z,20.00
2019-03-24T14:41:16.431Z,20.60
2019-03-24T14:43:44.705Z,20.50
2019-03-24T14:46:12.971Z,20.30
2019-03-24T14:48:41.248Z,20.00
2019-03-24T14:51:09.501Z,20.10
2019-03-24T14:53:37.742Z,20.00
2019-03-24T14:56:05.986Z,19.60
2019-03-24T14:58:34.243Z,19.00
2019-03-24T15:01:02.469Z,19.30
2019-03-24T15:03:30.732Z,19.60
2019-03-24T15:05:58.978Z,20.00
2019-03-24T15:08:27.227Z,20.30
2019-03-24T15:10:55.498Z,20.90
2019-03-24T15:13:23.725Z,21.40
2019-03-24T15:15:51.981Z,21.00
2019-03-24T15:18:20.239Z,21.10
2019-03-24T15:20:48.477Z,21.10
2019-03-24T15:23:16.745Z,21.10
2019-03-24T15:25:44.980Z,20.50
2019-03-24T15:28:13.206Z,20.30
2019-03-24T15:30:41.475Z,20.50
2019-03-24T15:33:09.732Z,20.70
2019-03-24T15:35:37.981Z,20.80
2019-03-24T15:38:08.827Z,21.00
2019-03-24T15:40:36.204Z,20.70
2019-03-24T15:43:04.460Z,20.40
2019-03-24T15:45:32.709Z,20.10
2019-03-24T15:48:00.951Z,19.50
2019-03-24T15:50:29.192Z,19.00
2019-03-24T15:52:57.445Z,18.80
2019-03-24T15:55:25.690Z,18.40
2019-03-24T15:57:53.936Z,18.40
2019-03-24T16:00:43.504Z,18.20
2019-03-24T16:03:11.749Z,18.20
2019-03-24T16:05:39.979Z,18.50
2019-03-24T16:08:08.231Z,18.20
2019-03-24T16:10:36.458Z,18.00
2019-03-24T16:13:04.704Z,17.80
2019-03-24T16:15:32.948Z,17.80
2019-03-24T16:18:01.197Z,17.60
2019-03-24T16:20:29.466Z,17.30
2019-03-24T16:22:57.696Z,17.30
2019-03-24T16:25:25.949Z,17.00
2019-03-24T16:27:54.197Z,16.70
2019-03-24T16:30:22.441Z,16.70
2019-03-24T16:32:50.703Z,16.70
2019-03-24T16:35:18.919Z,16.60
2019-03-24T16:37:47.209Z,16.50
2019-03-24T16:40:15.448Z,16.40
2019-03-24T16:42:43.691Z,16.40
2019-03-24T16:45:11.948Z,16.20
2019-03-24T16:47:40.182Z,16.30
2019-03-24T16:50:08.425Z,16.30
2019-03-24T16:52:36.690Z,16.30
2019-03-24T16:55:07.038Z,16.30
2019-03-24T16:57:35.268Z,16.00
2019-03-24T17:00:05.972Z,15.90
2019-03-24T17:02:34.222Z,15.80
2019-03-24T17:05:02.570Z,15.80
2019-03-24T17:07:30.818Z,15.60
2019-03-24T17:09:59.209Z,15.30
2019-03-24T17:12:27.488Z,15.20
2019-03-24T17:14:55.758Z,15.30
2019-03-24T17:17:23.983Z,15.30
2019-03-24T17:19:52.242Z,15.20
2019-03-24T17:22:20.480Z,15.00
2019-03-24T17:24:48.710Z,14.90
2019-03-24T17:27:16.963Z,14.80
2019-03-24T17:29:45.186Z,14.60
2019-03-24T17:32:13.441Z,14.40
2019-03-24T17:34:41.672Z,14.50
2019-03-24T17:37:09.931Z,14.60
2019-03-24T17:39:38.155Z,14.60
2019-03-24T17:42:06.387Z,14.50
2019-03-24T17:44:34.660Z,14.40
2019-03-24T17:47:02.909Z,14.20
2019-03-24T17:49:31.190Z,14.30
2019-03-24T17:52:01.032Z,14.20
2019-03-24T17:54:29.512Z,14.20
2019-03-24T17:56:57.761Z,14.20
2019-03-24T17:59:26.015Z,14.10
2019-03-24T18:01:54.254Z,14.20
2019-03-24T18:04:24.882Z,14.20
2019-03-24T18:06:52.486Z,14.10
2019-03-24T18:09:20.753Z,14.10
2019-03-24T18:11:48.985Z,14.10
2019-03-24T18:14:17.227Z,14.10
2019-03-24T18:16:45.467Z,14.00
2019-03-24T18:19:13.690Z,14.00
2019-03-24T18:21:41.967Z,13.90
2019-03-24T18:24:10.236Z,14.00
2019-03-24T18:26:38.488Z,13.90
2019-03-24T18:29:06.748Z,13.90
2019-03-24T18:31:34.970Z,13.90
2019-03-24T18:34:03.206Z,13.90
2019-03-24T18:36:32.317Z,13.80
2019-03-24T18:39:00.548Z,13.70
2019-03-24T18:41:28.795Z,13.70
2019-03-24T18:43:57.038Z,13.70
2019-03-24T18:46:25.277Z,13.60
2019-03-24T18:48:53.527Z,13.50
2019-03-24T18:51:21.771Z,13.60
2019-03-24T18:53:50.032Z,13.60
2019-03-24T18:56:18.264Z,13.70
2019-03-24T18:58:46.497Z,13.70
2019-03-24T19:01:14.756Z,13.60
2019-03-24T19:03:43.169Z,13.50
2019-03-24T19:06:11.429Z,13.60
2019-03-24T19:08:39.661Z,13.70
2019-03-24T19:11:07.924Z,13.70
2019-03-24T19:13:36.157Z,13.60
2019-03-24T19:16:04.391Z,13.70
2019-03-24T19:18:32.638Z,13.50
2019-03-24T19:21:00.884Z,13.50
2019-03-24T19:23:29.116Z,13.50
2019-03-24T19:25:57.375Z,13.50
2019-03-24T19:28:25.606Z,13.50
2019-03-24T19:30:53.842Z,13.60
2019-03-24T19:33:22.078Z,13.50
2019-03-24T19:35:50.321Z,13.50
2019-03-24T19:38:18.593Z,13.40
2019-03-24T19:40:46.816Z,13.40
2019-03-24T19:43:15.065Z,13.40
2019-03-24T19:45:43.341Z,13.30
2019-03-24T19:48:11.574Z,13.30
2019-03-24T19:50:39.794Z,13.30
2019-03-24T19:53:08.078Z,13.20
2019-03-24T19:55:36.306Z,13.20
2019-03-24T19:58:04.617Z,13.20
2019-03-24T20:00:32.873Z,13.20
2019-03-24T20:03:01.122Z,13.20
2019-03-24T20:05:29.376Z,13.20
2019-03-24T20:07:57.599Z,13.20
2019-03-24T20:10:25.840Z,13.20
2019-03-24T20:12:54.093Z,13.20
2019-03-24T20:15:22.320Z,13.10
2019-03-24T20:17:50.556Z,13.10
2019-03-24T20:20:18.821Z,13.10
2019-03-24T20:22:55.961Z,13.00
2019-03-24T20:25:17.054Z,12.90
2019-03-24T20:27:45.294Z,13.00
2019-03-24T20:30:13.544Z,13.00
2019-03-24T20:32:41.780Z,13.00
2019-03-24T20:35:10.026Z,12.90
2019-03-24T20:37:38.302Z,12.90
2019-03-24T20:40:06.550Z,12.80
2019-03-24T20:42:34.781Z,12.70
2019-03-24T20:45:03.049Z,12.70
2019-03-24T20:47:31.274Z,12.70
2019-03-24T20:49:59.539Z,12.80
2019-03-24T20:52:27.793Z,12.70
2019-03-24T20:54:56.024Z,12.70
2019-03-24T20:57:24.260Z,12.70
2019-03-24T20:59:52.613Z,12.70
2019-03-24T21:02:20.853Z,12.80
2019-03-24T21:04:49.105Z,12.80
2019-03-24T21:07:17.373Z,12.70
2019-03-24T21:09:46.623Z,12.70
2019-03-24T21:12:15.030Z,12.70
2019-03-24T21:14:43.284Z,12.70
2019-03-24T21:17:11.511Z,12.70
2019-03-24T21:19:39.750Z,12.70
2019-03-24T21:22:08.002Z,12.60
2019-03-24T21:24:36.247Z,12.60
2019-03-24T21:27:06.967Z,12.60
2019-03-24T21:29:34.463Z,12.40
2019-03-24T21:32:02.696Z,12.40
2019-03-24T21:34:30.919Z,12.40
2019-03-24T21:36:59.177Z,12.30
2019-03-24T21:39:27.425Z,12.30
2019-03-24T21:41:55.684Z,12.20
2019-03-24T21:44:23.915Z,12.20
2019-03-24T21:46:52.156Z,12.20
2019-03-24T21:49:20.435Z,12.20
2019-03-24T21:51:48.659Z,12.20
2019-03-24T21:54:16.886Z,12.00
2019-03-24T21:56:45.165Z,11.90
2019-03-24T21:59:13.476Z,11.90
2019-03-24T22:01:41.708Z,11.90
2019-03-24T22:04:09.992Z,12.00
2019-03-24T22:06:38.230Z,12.00
2019-03-24T22:09:07.210Z,11.90
2019-03-24T22:11:35.463Z,11.90
2019-03-24T22:14:03.710Z,11.90
2019-03-24T22:16:31.954Z,11.80
2019-03-24T22:19:00.206Z,11.70
2019-03-24T22:21:28.460Z,11.60
2019-03-24T22:23:56.711Z,11.70
2019-03-24T22:26:24.956Z,11.70
2019-03-24T22:28:53.203Z,11.60
2019-03-24T22:31:21.442Z,11.60
2019-03-24T22:33:49.679Z,11.60
2019-03-24T22:36:17.933Z,11.50
2019-03-24T22:38:46.205Z,11.50
2019-03-24T22:41:14.427Z,11.50
2019-03-24T22:43:42.674Z,11.50
2019-03-24T22:46:10.936Z,11.50
2019-03-24T22:48:39.167Z,11.40
2019-03-24T22:51:07.416Z,11.20
2019-03-24T22:53:35.711Z,11.20
2019-03-24T22:56:03.954Z,11.30
2019-03-24T22:58:32.193Z,11.30
2019-03-24T23:01:00.524Z,11.30
2019-03-24T23:03:28.763Z,11.30
2019-03-24T23:05:56.994Z,11.20
2019-03-24T23:08:25.263Z,11.20
2019-03-24T23:10:53.493Z,11.20
2019-03-24T23:13:21.715Z,11.20
2019-03-24T23:15:50.087Z,11.20
2019-03-24T23:18:18.317Z,11.10
2019-03-24T23:20:46.554Z,11.10
2019-03-24T23:23:14.812Z,11.10
2019-03-24T23:25:43.043Z,11.10
2019-03-24T23:28:11.314Z,11.00
2019-03-24T23:30:39.554Z,11.10
2019-03-24T23:33:07.799Z,11.00
2019-03-24T23:35:36.064Z,10.90
2019-03-24T23:38:04.330Z,10.90
2019-03-24T23:40:32.564Z,10.80
2019-03-24T23:43:00.793Z,10.80
2019-03-24T23:45:29.043Z,10.90
2019-03-24T23:47:57.306Z,10.80
2019-03-24T23:50:25.527Z,10.70
2019-03-24T23:52:53.760Z,10.70
2019-03-24T23:55:22.023Z,10.60
2019-03-24T23:57:50.263Z,10.70
